createdAt,value
2023-04-11T00:00:41.604Z,69.91
2023-04-11T00:06:07.665Z,73.10
2023-04-11T00:11:31.616Z,78.65
2023-04-11T00:17:00.612Z,76.26
2023-04-11T00:22:27.044Z,81.88
2023-04-11T00:27:51.618Z,92.25
2023-04-11T00:33:18.669Z,100.00
2023-04-11T00:38:43.634Z,100.00
2023-04-11T00:44:09.020Z,100.00
2023-04-11T00:49:39.043Z,100.00
2023-04-11T00:55:03.639Z,100.00
2023-04-11T01:00:29.638Z,100.00
2023-04-11T01:05:58.664Z,100.00
2023-04-11T01:11:27.644Z,100.00
2023-04-11T01:16:53.690Z,100.00
2023-04-11T01:22:24.662Z,100.00
2023-04-11T01:27:51.684Z,100.00
2023-04-11T01:33:17.656Z,100.00
2023-04-11T01:38:41.736Z,100.00
2023-04-11T01:44:09.820Z,100.00
2023-04-11T01:49:35.671Z,100.00
2023-04-11T01:55:01.688Z,100.00
2023-04-11T02:00:33.705Z,100.00
2023-04-11T02:05:59.705Z,100.00
2023-04-11T02:11:24.712Z,100.00
2023-04-11T02:17:02.800Z,100.00
2023-04-11T02:22:27.674Z,100.00
2023-04-11T02:27:52.704Z,100.00
2023-04-11T02:33:20.703Z,100.00
2023-04-11T02:38:45.678Z,100.00
2023-04-11T02:44:09.722Z,100.00
2023-04-11T02:49:38.680Z,100.00
2023-04-11T02:55:07.689Z,100.00
2023-04-11T03:00:32.799Z,100.00
2023-04-11T03:06:03.722Z,100.00
2023-04-11T03:11:29.723Z,100.00
2023-04-11T03:16:55.723Z,100.00
2023-04-11T03:22:26.682Z,100.00
2023-04-11T03:27:52.727Z,100.00
2023-04-11T03:33:18.702Z,100.00
2023-04-11T03:38:45.742Z,100.00
2023-04-11T03:44:12.721Z,100.00
2023-04-11T03:49:38.743Z,100.00
2023-04-11T03:55:09.739Z,100.00
2023-04-11T04:00:35.763Z,100.00
2023-04-11T04:06:00.743Z,100.00
2023-04-11T04:11:28.752Z,100.00
2023-04-11T04:22:40.486Z,100.00
2023-04-11T04:28:16.738Z,100.00
2023-04-11T04:39:48.739Z,100.00
2023-04-11T04:45:21.750Z,100.00
2023-04-11T04:50:47.830Z,100.00
2023-04-11T04:56:12.820Z,100.00
2023-04-11T05:01:46.858Z,100.00
2023-04-11T05:07:20.406Z,100.00
2023-04-11T05:12:47.844Z,100.00
2023-04-11T05:18:15.779Z,100.00
2023-04-11T05:23:39.771Z,100.00
2023-04-11T05:29:04.792Z,100.00
2023-04-11T05:40:54.865Z,100.00
2023-04-11T05:46:22.869Z,100.00
2023-04-11T05:51:46.786Z,100.00
2023-04-11T05:57:13.833Z,100.00
2023-04-11T06:02:40.969Z,100.00
2023-04-11T06:08:06.801Z,100.00
2023-04-11T06:13:31.801Z,100.00
2023-04-11T06:19:05.812Z,100.00
2023-04-11T06:24:44.776Z,100.00
2023-04-11T06:30:08.803Z,100.00
2023-04-11T06:35:36.870Z,100.00
2023-04-11T06:41:02.788Z,100.00
2023-04-11T06:46:27.910Z,100.00
2023-04-11T06:51:56.832Z,100.00
2023-04-11T06:57:21.824Z,100.00
2023-04-11T07:02:46.045Z,100.00
2023-04-11T07:08:17.378Z,100.00
2023-04-11T07:13:42.939Z,100.00
2023-04-11T07:19:13.813Z,100.00
2023-04-11T07:24:49.822Z,100.00
2023-04-11T07:30:15.852Z,100.00
2023-04-11T07:35:40.846Z,100.00
2023-04-11T07:41:11.813Z,100.00
2023-04-11T07:46:35.854Z,100.00
2023-04-11T07:52:00.943Z,100.00
2023-04-11T07:57:29.041Z,100.00
2023-04-11T08:02:54.230Z,100.00
2023-04-11T08:08:18.836Z,100.00
2023-04-11T08:13:46.839Z,100.00
2023-04-11T08:19:10.871Z,100.00
2023-04-11T08:24:35.896Z,100.00
2023-04-11T08:30:02.999Z,100.00
2023-04-11T08:35:27.867Z,100.00
2023-04-11T08:40:52.878Z,100.00
2023-04-11T08:46:20.940Z,100.00
2023-04-11T08:51:44.972Z,100.00
2023-04-11T08:57:09.876Z,100.00
2023-04-11T09:02:37.933Z,100.00
2023-04-11T09:08:04.141Z,100.00
2023-04-11T09:13:36.882Z,100.00
2023-04-11T09:19:10.867Z,100.00
2023-04-11T09:24:37.018Z,100.00
2023-04-11T09:30:02.928Z,100.00
2023-04-11T09:35:34.925Z,100.00
2023-04-11T09:40:59.902Z,100.00
2023-04-11T09:46:24.885Z,100.00
2023-04-11T09:51:52.912Z,100.00
2023-04-11T09:57:17.892Z,100.00
2023-04-11T10:02:43.005Z,100.00
2023-04-11T10:08:14.957Z,100.00
2023-04-11T10:13:56.127Z,100.00
2023-04-11T10:19:49.042Z,100.00
2023-04-11T10:25:30.933Z,100.00
2023-04-11T10:31:10.937Z,100.00
2023-04-11T10:36:35.919Z,100.00
2023-04-11T10:42:02.924Z,100.00
2023-04-11T10:47:32.983Z,100.00
2023-04-11T10:52:56.926Z,100.00
2023-04-11T10:58:25.917Z,100.00
2023-04-11T11:03:51.177Z,100.00
2023-04-11T11:09:30.945Z,100.00
2023-04-11T11:15:00.921Z,100.00
2023-04-11T11:20:26.998Z,100.00
2023-04-11T11:25:51.960Z,100.00
2023-04-11T11:31:20.104Z,100.00
2023-04-11T11:36:44.977Z,100.00
2023-04-11T11:42:09.966Z,100.00
2023-04-11T11:47:37.000Z,100.00
2023-04-11T11:53:01.966Z,100.00
2023-04-11T11:58:25.953Z,100.00
2023-04-11T12:03:54.188Z,100.00
2023-04-11T12:09:19.986Z,100.00
2023-04-11T12:14:44.964Z,100.00
2023-04-11T12:20:14.992Z,100.00
2023-04-11T12:25:39.990Z,100.00
2023-04-11T12:31:04.012Z,100.00
2023-04-11T12:41:56.997Z,100.00
2023-04-11T12:47:22.049Z,100.00
2023-04-11T12:52:57.981Z,100.00
2023-04-11T12:58:23.011Z,100.00
2023-04-11T13:03:48.119Z,100.00
2023-04-11T13:09:16.021Z,100.00
2023-04-11T13:14:43.086Z,97.93
2023-04-11T13:20:07.996Z,94.55
2023-04-11T13:25:35.017Z,95.95
2023-04-11T13:31:00.028Z,95.28
2023-04-11T13:36:26.039Z,100.00
2023-04-11T13:41:54.023Z,100.00
2023-04-11T13:47:19.046Z,100.00
2023-04-11T13:52:44.008Z,100.00
2023-04-11T13:58:11.103Z,100.00
2023-04-11T14:03:40.102Z,100.00
2023-04-11T14:09:04.078Z,95.05
2023-04-11T14:14:32.062Z,75.49
2023-04-11T14:20:03.035Z,78.27
2023-04-11T14:25:29.040Z,66.99
2023-04-11T14:30:56.187Z,67.41
2023-04-11T14:36:21.390Z,59.93
2023-04-11T14:41:45.118Z,65.74
2023-04-11T14:47:13.090Z,62.03
2023-04-11T14:52:37.059Z,67.74
2023-04-11T14:58:04.051Z,69.52
2023-04-11T15:03:32.251Z,56.53
2023-04-11T15:08:57.149Z,54.59
2023-04-11T15:14:21.064Z,53.05
2023-04-11T15:19:55.087Z,51.59
2023-04-11T15:25:23.038Z,51.99
2023-04-11T15:30:47.080Z,53.31
2023-04-11T15:36:15.132Z,52.82
2023-04-11T15:41:39.203Z,57.62
2023-04-11T15:47:04.113Z,58.77
2023-04-11T15:52:31.078Z,62.10
2023-04-11T15:57:56.065Z,64.11
2023-04-11T16:03:23.381Z,82.32
2023-04-11T16:08:51.114Z,91.06
2023-04-11T16:14:16.110Z,100.00
2023-04-11T16:19:48.384Z,92.08
2023-04-11T16:25:17.120Z,87.20
2023-04-11T16:30:41.130Z,72.78
2023-04-11T16:36:06.109Z,64.91
2023-04-11T16:41:33.108Z,70.63
2023-04-11T16:46:58.207Z,75.71
2023-04-11T16:52:22.153Z,68.60
2023-04-11T16:57:50.494Z,75.29
2023-04-11T17:03:14.420Z,77.13
2023-04-11T17:08:39.110Z,79.29
2023-04-11T17:14:07.133Z,75.84
2023-04-11T17:19:32.129Z,74.16
2023-04-11T17:24:56.131Z,82.72
2023-04-11T17:30:26.163Z,82.96
2023-04-11T17:35:51.268Z,94.00
2023-04-11T17:41:17.520Z,100.00
2023-04-11T17:46:44.198Z,87.43
2023-04-11T17:52:09.159Z,86.63
2023-04-11T17:57:34.158Z,93.28
2023-04-11T18:03:10.245Z,96.71
2023-04-11T18:08:49.958Z,100.00
2023-04-11T18:14:16.145Z,100.00
2023-04-11T18:19:50.241Z,100.00
2023-04-11T18:25:16.291Z,100.00
2023-04-11T18:30:41.289Z,100.00
2023-04-11T18:36:09.211Z,100.00
2023-04-11T18:41:34.190Z,100.00
2023-04-11T18:47:01.416Z,100.00
2023-04-11T18:52:30.168Z,100.00
2023-04-11T18:57:57.950Z,100.00
2023-04-11T19:03:27.260Z,100.00
2023-04-11T19:08:55.198Z,100.00
2023-04-11T19:14:20.273Z,100.00
2023-04-11T19:19:52.599Z,100.00
2023-04-11T19:25:21.260Z,100.00
2023-04-11T19:30:46.174Z,100.00
2023-04-11T19:36:11.751Z,100.00
2023-04-11T19:41:38.196Z,100.00
2023-04-11T19:47:03.246Z,100.00
2023-04-11T19:52:28.210Z,100.00
2023-04-11T19:57:50.229Z,100.00
2023-04-11T20:03:21.429Z,100.00
2023-04-11T20:08:46.225Z,100.00
2023-04-11T20:14:14.212Z,100.00
2023-04-11T20:19:46.239Z,100.00
2023-04-11T20:25:11.262Z,100.00
2023-04-11T20:30:39.265Z,100.00
2023-04-11T20:36:05.291Z,100.00
2023-04-11T20:41:31.217Z,100.00
2023-04-11T20:47:00.233Z,100.00
2023-04-11T20:52:25.253Z,100.00
2023-04-11T20:57:51.301Z,100.00
2023-04-11T21:03:19.288Z,100.00
2023-04-11T21:08:45.242Z,100.00
2023-04-11T21:14:09.229Z,100.00
2023-04-11T21:19:43.284Z,100.00
2023-04-11T21:25:08.258Z,100.00
2023-04-11T21:30:32.276Z,100.00
2023-04-11T21:36:02.346Z,100.00
2023-04-11T21:41:26.252Z,100.00
2023-04-11T21:46:51.284Z,100.00
2023-04-11T21:52:18.270Z,100.00
2023-04-11T21:57:43.260Z,100.00
2023-04-11T22:03:08.557Z,100.00
2023-04-11T22:08:36.263Z,100.00
2023-04-11T22:14:01.269Z,100.00
2023-04-11T22:19:31.377Z,100.00
2023-04-11T22:24:59.329Z,100.00
2023-04-11T22:30:25.300Z,100.00
2023-04-11T22:35:50.293Z,100.00
2023-04-11T22:41:24.274Z,100.00
2023-04-11T22:46:49.285Z,100.00
2023-04-11T22:52:15.345Z,100.00
2023-04-11T22:57:43.330Z,100.00
2023-04-11T23:03:09.287Z,100.00
2023-04-11T23:08:35.302Z,100.00
2023-04-11T23:14:04.299Z,100.00
2023-04-11T23:19:28.310Z,100.00
2023-04-11T23:24:53.285Z,100.00
2023-04-11T23:30:21.270Z,100.00
2023-04-11T23:35:54.303Z,100.00
2023-04-11T23:41:19.322Z,100.00
2023-04-11T23:46:47.446Z,100.00
2023-04-11T23:52:12.284Z,100.00
2023-04-11T23:57:38.298Z,100.00
